Time;durP1;ratioP1;P1;durP2;ratioP2;P2;SDS_P1;SDS_P2;PMS_P1;PMS_P2;Temp;Humidity;BMP_temperature;BMP_pressure;BME280_temperature;BME280_humidity;BME280_pressure;Samples;Min_cycle;Max_cycle;Signal;HPM_P1;HPM_P2
2022/06/24 00:00:29;;;;;;;;;;;20.40;99.90;;;;;;5070036;28;19947;-64
2022/06/24 00:02:55;;;;;;;;;;;20.40;99.90;;;;;;5071267;28;19931;-65
2022/06/24 00:05:23;;;;;;;;;;;20.30;99.90;;;;;;5071005;28;20383;-63
2022/06/24 00:07:50;;;;;;;;;;;20.30;99.90;;;;;;5071358;28;19935;-65
2022/06/24 00:10:18;;;;;;;;;;;20.30;99.90;;;;;;5070955;28;19924;-65
2022/06/24 00:12:49;;;;;;;;;;;20.20;99.90;;;;;;5064171;28;20011;-65
2022/06/24 00:15:22;;;;;;;;;;;20.20;99.90;;;;;;5067043;28;19925;-65
2022/06/24 00:17:49;;;;;;;;;;;20.10;99.90;;;;;;5069221;28;19924;-64
2022/06/24 00:20:18;;;;;;;;;;;20.10;99.90;;;;;;5059693;28;20019;-65
2022/06/24 00:22:49;;;;;;;;;;;20.00;99.90;;;;;;5061790;28;20429;-65
2022/06/24 00:25:17;;;;;;;;;;;20.00;99.90;;;;;;5065580;28;19931;-65
2022/06/24 00:28:04;;;;;;;;;;;19.90;99.90;;;;;;5068023;28;20653;-65
2022/06/24 00:30:38;;;;;;;;;;;20.00;99.90;;;;;;5069575;28;19934;-65
2022/06/24 00:33:09;;;;;;;;;;;20.00;99.90;;;;;;5071019;28;19935;-65
2022/06/24 00:35:37;;;;;;;;;;;19.90;99.90;;;;;;5070515;28;19931;-65
2022/06/24 00:38:19;;;;;;;;;;;19.90;99.90;;;;;;5070962;28;19925;-65
2022/06/24 00:40:47;;;;;;;;;;;19.90;99.90;;;;;;5051441;28;20019;-65
2022/06/24 00:43:27;;;;;;;;;;;19.80;99.90;;;;;;5062345;28;19931;-65
2022/06/24 00:45:58;;;;;;;;;;;19.80;99.90;;;;;;5069076;28;20278;-65
2022/06/24 00:48:27;;;;;;;;;;;19.80;99.90;;;;;;5071306;28;19924;-64
2022/06/24 00:50:54;;;;;;;;;;;19.70;99.90;;;;;;5067428;28;20473;-65
2022/06/24 00:53:23;;;;;;;;;;;19.70;99.90;;;;;;5066714;28;20349;-65
2022/06/24 00:55:51;;;;;;;;;;;19.70;99.90;;;;;;5068811;28;19931;-65
2022/06/24 00:58:18;;;;;;;;;;;19.60;99.90;;;;;;5071001;28;19925;-66
2022/06/24 01:00:45;;;;;;;;;;;19.60;99.90;;;;;;5073290;28;19931;-65
2022/06/24 01:03:14;;;;;;;;;;;19.60;99.90;;;;;;5069443;28;20438;-65
2022/06/24 01:05:42;;;;;;;;;;;19.60;99.90;;;;;;5070964;28;20493;-65
2022/06/24 01:08:09;;;;;;;;;;;19.60;99.90;;;;;;5071175;28;20022;-64
2022/06/24 01:10:37;;;;;;;;;;;19.60;99.90;;;;;;5071249;28;20290;-65
2022/06/24 01:13:08;;;;;;;;;;;19.50;99.90;;;;;;5068779;28;19930;-65
2022/06/24 01:15:35;;;;;;;;;;;19.50;99.90;;;;;;5069996;28;19932;-64
2022/06/24 01:18:02;;;;;;;;;;;19.20;99.90;;;;;;5061408;28;20394;-61
2022/06/24 01:20:29;;;;;;;;;;;18.90;99.90;;;;;;5070848;28;19936;-62
2022/06/24 01:22:56;;;;;;;;;;;18.60;99.90;;;;;;5088753;28;19967;-63
2022/06/24 01:25:23;;;;;;;;;;;18.20;99.90;;;;;;5074266;28;19924;-63
2022/06/24 01:27:49;;;;;;;;;;;17.90;99.90;;;;;;5069033;28;19925;-63
2022/06/24 01:30:16;;;;;;;;;;;17.70;99.90;;;;;;5056839;28;19931;-62
2022/06/24 01:32:43;;;;;;;;;;;17.60;99.90;;;;;;5072391;28;19930;-62
2022/06/24 01:35:11;;;;;;;;;;;17.50;99.90;;;;;;5067862;28;20376;-62
2022/06/24 01:37:39;;;;;;;;;;;17.40;99.90;;;;;;5067503;28;19930;-62
2022/06/24 01:40:06;;;;;;;;;;;17.40;99.90;;;;;;5067452;28;20484;-63
2022/06/24 01:42:32;;;;;;;;;;;17.30;99.90;;;;;;5057791;28;19932;-63
2022/06/24 01:45:00;;;;;;;;;;;17.20;99.90;;;;;;5070144;28;19928;-62
2022/06/24 01:47:26;;;;;;;;;;;17.10;99.90;;;;;;5069803;28;19925;-63
2022/06/24 01:49:53;;;;;;;;;;;17.10;99.90;;;;;;5070733;28;19978;-63
2022/06/24 01:52:25;;;;;;;;;;;17.10;99.90;;;;;;5070236;28;20027;-63
2022/06/24 01:54:54;;;;;;;;;;;17.10;99.90;;;;;;5069760;28;20331;-64
2022/06/24 01:57:21;;;;;;;;;;;17.10;99.90;;;;;;5067995;28;19928;-64
2022/06/24 01:59:51;;;;;;;;;;;17.10;99.90;;;;;;5068672;28;19978;-63
2022/06/24 02:02:18;;;;;;;;;;;17.10;99.90;;;;;;5069999;28;19958;-64
2022/06/24 02:04:48;;;;;;;;;;;17.00;99.90;;;;;;5074455;28;19924;-64
2022/06/24 02:07:14;;;;;;;;;;;17.00;99.90;;;;;;5071374;28;19931;-65
2022/06/24 02:15:11;;;;;;;;;;;17.00;99.90;;;;;;5085169;28;20438;-65
2022/06/24 02:17:38;;;;;;;;;;;17.00;99.90;;;;;;5078993;28;19938;-66
2022/06/24 02:20:05;;;;;;;;;;;17.00;99.90;;;;;;5066827;28;19934;-66
2022/06/24 02:22:32;;;;;;;;;;;17.00;99.90;;;;;;5066134;28;19935;-65
2022/06/24 02:24:59;;;;;;;;;;;16.90;99.90;;;;;;5069402;28;19971;-65
2022/06/24 02:27:26;;;;;;;;;;;16.90;99.90;;;;;;5054047;28;19929;-66
2022/06/24 02:29:52;;;;;;;;;;;16.90;99.90;;;;;;5070435;28;19968;-66
2022/06/24 02:32:19;;;;;;;;;;;16.90;99.90;;;;;;5061150;28;25069;-66
2022/06/24 02:34:49;;;;;;;;;;;16.80;99.90;;;;;;4857636;28;37240;-67
2022/06/24 02:37:15;;;;;;;;;;;16.90;99.90;;;;;;4908903;28;34244;-67
2022/06/24 02:39:42;;;;;;;;;;;16.80;99.90;;;;;;4838824;28;27131;-67
2022/06/24 02:42:09;;;;;;;;;;;16.80;99.90;;;;;;4887380;28;39189;-66
2022/06/24 02:44:35;;;;;;;;;;;16.80;99.90;;;;;;4878561;28;130171;-67
2022/06/24 02:47:11;;;;;;;;;;;16.80;99.90;;;;;;4889358;28;59115;-66
2022/06/24 02:49:38;;;;;;;;;;;16.80;99.90;;;;;;4901776;28;228181;-67
2022/06/24 02:52:06;;;;;;;;;;;16.80;99.90;;;;;;4887830;28;92176;-67
2022/06/24 02:54:33;;;;;;;;;;;16.80;99.90;;;;;;4898539;28;107147;-67
2022/06/24 02:57:03;;;;;;;;;;;16.80;99.90;;;;;;4936518;28;60112;-66
2022/06/24 02:59:29;;;;;;;;;;;16.80;99.90;;;;;;4935713;28;50054;-67
2022/06/24 03:01:56;;;;;;;;;;;16.80;99.90;;;;;;4939757;28;53102;-67
2022/06/24 03:04:23;;;;;;;;;;;16.80;99.90;;;;;;5039664;28;25121;-67
2022/06/24 03:06:50;;;;;;;;;;;16.80;99.90;;;;;;5071437;28;19959;-67
2022/06/24 03:09:18;;;;;;;;;;;16.80;99.90;;;;;;5073500;28;19924;-67
2022/06/24 03:11:45;;;;;;;;;;;16.90;99.90;;;;;;4974876;28;46144;-67
2022/06/24 03:14:12;;;;;;;;;;;16.90;99.90;;;;;;4935319;28;67104;-67
2022/06/24 03:16:39;;;;;;;;;;;16.90;99.90;;;;;;4935717;28;85135;-68
2022/06/24 03:19:08;;;;;;;;;;;16.90;99.90;;;;;;4938558;28;50119;-67
2022/06/24 03:21:35;;;;;;;;;;;16.90;99.90;;;;;;4951358;28;38154;-67
2022/06/24 03:24:02;;;;;;;;;;;17.00;99.90;;;;;;4932070;28;107165;-67
2022/06/24 03:26:29;;;;;;;;;;;17.00;99.90;;;;;;4929143;28;94120;-68
2022/06/24 03:28:55;;;;;;;;;;;16.90;99.90;;;;;;4934982;28;126146;-67
2022/06/24 03:31:22;;;;;;;;;;;17.00;99.90;;;;;;4935360;28;76137;-68
2022/06/24 03:33:49;;;;;;;;;;;16.90;99.90;;;;;;4938784;28;59080;-67
2022/06/24 03:36:16;;;;;;;;;;;16.90;99.90;;;;;;4945289;28;73178;-68
2022/06/24 03:38:42;;;;;;;;;;;16.90;99.90;;;;;;4941190;28;125140;-68
2022/06/24 03:41:11;;;;;;;;;;;16.90;99.90;;;;;;4935933;28;111118;-67
2022/06/24 03:43:38;;;;;;;;;;;16.90;99.90;;;;;;4932582;28;71174;-67
2022/06/24 03:46:05;;;;;;;;;;;16.90;99.90;;;;;;4932404;28;47115;-68
2022/06/24 03:48:32;;;;;;;;;;;16.90;99.90;;;;;;4949471;28;31060;-67
2022/06/24 03:50:58;;;;;;;;;;;16.90;99.90;;;;;;4942142;28;59168;-68
2022/06/24 03:53:25;;;;;;;;;;;16.90;99.90;;;;;;4927444;28;116157;-68
2022/06/24 03:55:52;;;;;;;;;;;16.90;99.90;;;;;;4988279;28;25161;-67
2022/06/24 03:58:21;;;;;;;;;;;16.90;99.90;;;;;;5074750;28;19930;-68
2022/06/24 04:00:48;;;;;;;;;;;16.90;99.90;;;;;;5072117;28;19924;-68
2022/06/24 04:03:15;;;;;;;;;;;17.00;99.90;;;;;;5071721;28;19943;-68
2022/06/24 04:05:42;;;;;;;;;;;17.00;99.90;;;;;;5024533;28;26167;-69
2022/06/24 04:08:10;;;;;;;;;;;16.90;99.90;;;;;;4997206;28;25168;-68
2022/06/24 04:10:37;;;;;;;;;;;16.90;99.90;;;;;;5069868;28;19951;-69
2022/06/24 04:13:04;;;;;;;;;;;16.90;99.90;;;;;;5068717;28;20422;-69
2022/06/24 04:15:30;;;;;;;;;;;16.90;99.90;;;;;;5063275;28;19942;-69
2022/06/24 04:17:57;;;;;;;;;;;16.90;99.90;;;;;;5070161;28;20031;-70
2022/06/24 04:20:23;;;;;;;;;;;16.90;99.90;;;;;;5059200;28;19931;-69
2022/06/24 04:22:50;;;;;;;;;;;16.90;99.90;;;;;;5071069;28;19931;-69
2022/06/24 04:25:17;;;;;;;;;;;17.00;99.90;;;;;;5031171;28;111154;-70
2022/06/24 04:27:46;;;;;;;;;;;17.00;99.90;;;;;;5041962;28;25057;-71
2022/06/24 04:30:13;;;;;;;;;;;17.10;99.90;;;;;;4985162;28;159163;-70
2022/06/24 04:32:39;;;;;;;;;;;17.10;99.90;;;;;;4979724;28;25081;-70
2022/06/24 04:35:07;;;;;;;;;;;17.10;99.90;;;;;;5016076;28;92160;-69
2022/06/24 04:37:35;;;;;;;;;;;17.20;99.90;;;;;;4908745;28;49161;-69
2022/06/24 04:40:03;;;;;;;;;;;17.20;99.90;;;;;;4927983;28;102184;-69
2022/06/24 04:42:29;;;;;;;;;;;17.20;99.90;;;;;;4943793;28;80155;-70
2022/06/24 04:44:56;;;;;;;;;;;17.20;99.90;;;;;;4929289;28;78149;-70
2022/06/24 04:47:23;;;;;;;;;;;17.30;99.90;;;;;;4909304;28;107160;-70
2022/06/24 04:49:50;;;;;;;;;;;17.40;99.90;;;;;;4928046;28;73112;-70
2022/06/24 04:52:17;;;;;;;;;;;17.50;99.90;;;;;;4935504;28;61132;-70
2022/06/24 04:54:44;;;;;;;;;;;17.50;99.90;;;;;;4953109;28;41106;-70
2022/06/24 04:57:11;;;;;;;;;;;17.60;99.90;;;;;;4954928;28;37058;-70
2022/06/24 04:59:38;;;;;;;;;;;17.60;99.90;;;;;;4964625;28;29076;-69
2022/06/24 05:02:05;;;;;;;;;;;17.70;99.90;;;;;;5039045;28;25054;-70
2022/06/24 05:04:34;;;;;;;;;;;17.70;99.90;;;;;;5068575;28;20557;-70
2022/06/24 05:07:02;;;;;;;;;;;17.70;99.90;;;;;;5075762;28;19924;-70
2022/06/24 05:09:30;;;;;;;;;;;17.70;99.90;;;;;;5073835;28;19930;-70
2022/06/24 05:11:57;;;;;;;;;;;17.80;99.90;;;;;;5078914;28;19946;-69
2022/06/24 05:14:24;;;;;;;;;;;17.80;99.90;;;;;;5078534;28;20043;-71
2022/06/24 05:16:51;;;;;;;;;;;17.80;99.90;;;;;;5067566;28;19930;-69
2022/06/24 05:19:18;;;;;;;;;;;17.80;99.90;;;;;;5067878;28;19931;-70
2022/06/24 05:21:45;;;;;;;;;;;17.90;99.90;;;;;;5063988;28;19967;-70
2022/06/24 05:24:11;;;;;;;;;;;18.00;99.90;;;;;;5071059;28;19963;-70
2022/06/24 05:26:40;;;;;;;;;;;18.10;99.90;;;;;;5077461;28;19940;-69
2022/06/24 05:29:07;;;;;;;;;;;18.10;99.90;;;;;;5079728;28;19924;-70
2022/06/24 05:31:34;;;;;;;;;;;18.10;99.90;;;;;;5056029;28;19951;-69
2022/06/24 05:34:01;;;;;;;;;;;18.10;99.90;;;;;;5066192;28;20007;-70
2022/06/24 05:36:27;;;;;;;;;;;18.00;99.90;;;;;;5074842;28;19924;-69
2022/06/24 05:38:54;;;;;;;;;;;18.00;99.90;;;;;;5067490;28;19925;-69
2022/06/24 05:41:22;;;;;;;;;;;18.00;99.90;;;;;;5068028;28;19978;-70
2022/06/24 05:43:48;;;;;;;;;;;18.10;99.90;;;;;;5072717;28;20379;-70
2022/06/24 05:46:15;;;;;;;;;;;18.10;99.90;;;;;;5082002;28;19924;-69
2022/06/24 05:48:42;;;;;;;;;;;18.10;99.90;;;;;;5072272;28;20426;-69
2022/06/24 05:51:10;;;;;;;;;;;18.20;99.90;;;;;;5074855;28;19932;-69
2022/06/24 05:56:23;;;;;;;;;;;18.30;99.90;;;;;;5065243;28;19936;-70
2022/06/24 05:58:50;;;;;;;;;;;18.40;99.90;;;;;;5052617;28;20414;-70
2022/06/24 06:01:16;;;;;;;;;;;18.60;99.90;;;;;;5062909;28;19967;-69
2022/06/24 06:03:43;;;;;;;;;;;18.80;99.90;;;;;;5069567;28;19954;-70
2022/06/24 06:06:10;;;;;;;;;;;18.80;99.90;;;;;;5069839;28;19947;-70
2022/06/24 06:08:37;;;;;;;;;;;18.90;99.90;;;;;;5079772;28;20280;-69
2022/06/24 06:11:13;;;;;;;;;;;18.90;99.90;;;;;;5078815;28;20011;-70
2022/06/24 06:13:41;;;;;;;;;;;18.80;99.90;;;;;;5074202;28;19939;-69
2022/06/24 06:16:08;;;;;;;;;;;18.80;99.90;;;;;;5078582;28;20015;-70
2022/06/24 06:18:36;;;;;;;;;;;18.70;99.90;;;;;;5080110;28;19970;-69
2022/06/24 06:21:03;;;;;;;;;;;18.70;99.90;;;;;;5081338;28;19929;-71
2022/06/24 06:23:31;;;;;;;;;;;18.70;99.90;;;;;;5081464;28;19924;-69
2022/06/24 06:26:01;;;;;;;;;;;18.70;99.90;;;;;;5057295;28;19925;-69
2022/06/24 06:28:28;;;;;;;;;;;18.70;99.90;;;;;;5088579;28;20361;-69
2022/06/24 06:30:54;;;;;;;;;;;19.00;99.90;;;;;;5080514;28;20294;-69
2022/06/24 06:33:21;;;;;;;;;;;19.60;99.90;;;;;;5079588;28;19931;-69
2022/06/24 06:35:48;;;;;;;;;;;21.10;99.90;;;;;;5078328;28;19976;-67
2022/06/24 06:38:17;;;;;;;;;;;22.40;99.90;;;;;;5076422;28;19925;-69
2022/06/24 06:40:46;;;;;;;;;;;23.30;99.90;;;;;;5064076;28;19924;-69
2022/06/24 06:43:12;;;;;;;;;;;24.10;99.90;;;;;;5083671;28;20019;-69
2022/06/24 06:45:39;;;;;;;;;;;24.40;99.90;;;;;;5075201;28;19973;-66
2022/06/24 06:48:06;;;;;;;;;;;24.10;99.90;;;;;;5071788;28;19931;-69
2022/06/24 06:50:35;;;;;;;;;;;24.10;99.90;;;;;;5070601;28;19924;-69
2022/06/24 06:53:03;;;;;;;;;;;23.90;99.90;;;;;;5067111;28;19932;-67
2022/06/24 06:55:30;;;;;;;;;;;23.60;99.90;;;;;;5068563;28;19924;-69
2022/06/24 06:57:56;;;;;;;;;;;23.20;99.90;;;;;;5068537;28;19933;-69
2022/06/24 07:00:23;;;;;;;;;;;23.30;99.90;;;;;;5071583;28;20005;-68
2022/06/24 07:02:50;;;;;;;;;;;23.60;99.90;;;;;;5068689;28;19928;-66
2022/06/24 07:05:17;;;;;;;;;;;24.60;99.90;;;;;;5070157;28;19946;-67
2022/06/24 07:07:43;;;;;;;;;;;25.40;99.90;;;;;;5069620;28;19924;-66
2022/06/24 07:10:10;;;;;;;;;;;25.60;99.90;;;;;;5069197;28;19931;-67
2022/06/24 07:12:39;;;;;;;;;;;25.70;99.90;;;;;;5069590;28;20334;-66
2022/06/24 07:15:06;;;;;;;;;;;25.30;99.90;;;;;;5070795;28;19931;-68
2022/06/24 07:17:33;;;;;;;;;;;23.80;99.90;;;;;;5074437;28;19928;-65
2022/06/24 07:20:00;;;;;;;;;;;22.80;99.90;;;;;;5065819;28;19932;-66
2022/06/24 07:22:26;;;;;;;;;;;22.40;99.90;;;;;;5071914;28;19955;-67
2022/06/24 07:24:53;;;;;;;;;;;22.20;99.90;;;;;;5068607;28;19925;-67
2022/06/24 07:27:20;;;;;;;;;;;22.30;99.90;;;;;;5069331;28;19924;-67
2022/06/24 07:29:47;;;;;;;;;;;22.20;99.90;;;;;;5069838;28;20413;-67
2022/06/24 07:32:14;;;;;;;;;;;22.00;99.90;;;;;;5086887;28;20043;-68
2022/06/24 07:34:41;;;;;;;;;;;21.80;99.90;;;;;;5068080;28;20015;-66
2022/06/24 07:37:07;;;;;;;;;;;22.00;99.90;;;;;;5074349;28;19935;-67
2022/06/24 07:39:41;;;;;;;;;;;22.20;99.90;;;;;;5071974;28;19928;-67
2022/06/24 07:42:08;;;;;;;;;;;22.80;99.90;;;;;;5072517;28;20645;-67
2022/06/24 07:44:35;;;;;;;;;;;23.80;99.90;;;;;;5070029;28;20408;-67
2022/06/24 07:47:01;;;;;;;;;;;24.10;99.90;;;;;;5070600;28;20007;-68
2022/06/24 07:49:28;;;;;;;;;;;23.90;99.90;;;;;;5073291;28;19932;-68
2022/06/24 07:51:55;;;;;;;;;;;23.90;99.90;;;;;;5074978;28;19954;-67
2022/06/24 07:54:24;;;;;;;;;;;24.80;99.90;;;;;;5082675;28;19959;-67
2022/06/24 07:56:57;;;;;;;;;;;25.20;99.90;;;;;;5072212;28;19931;-67
2022/06/24 07:59:28;;;;;;;;;;;25.30;99.90;;;;;;5072286;28;20395;-69
2022/06/24 08:01:55;;;;;;;;;;;24.60;99.90;;;;;;5071229;28;19931;-66
2022/06/24 08:04:22;;;;;;;;;;;24.00;99.90;;;;;;5069983;28;19925;-68
2022/06/24 08:06:52;;;;;;;;;;;23.80;99.90;;;;;;5069034;28;19925;-68
2022/06/24 08:09:20;;;;;;;;;;;23.10;99.90;;;;;;5068267;28;19924;-67
2022/06/24 08:11:53;;;;;;;;;;;22.60;99.90;;;;;;5071374;28;19924;-67
2022/06/24 08:14:20;;;;;;;;;;;22.50;99.90;;;;;;5064773;28;19936;-67
2022/06/24 08:16:47;;;;;;;;;;;22.60;99.90;;;;;;5059223;28;20001;-66
2022/06/24 08:19:14;;;;;;;;;;;22.90;99.90;;;;;;5071897;28;19994;-67
2022/06/24 08:21:42;;;;;;;;;;;22.80;99.90;;;;;;5067246;28;20739;-67
2022/06/24 08:24:09;;;;;;;;;;;22.90;99.90;;;;;;5070598;28;19932;-66
2022/06/24 08:26:39;;;;;;;;;;;22.60;99.90;;;;;;5073594;28;19924;-66
2022/06/24 08:29:09;;;;;;;;;;;22.50;99.90;;;;;;5086817;28;19924;-67
2022/06/24 08:31:37;;;;;;;;;;;22.50;99.90;;;;;;5074574;28;19931;-66
2022/06/24 08:34:03;;;;;;;;;;;22.80;99.90;;;;;;5080819;28;19959;-67
2022/06/24 08:36:30;;;;;;;;;;;22.60;99.90;;;;;;5071086;28;20397;-67
2022/06/24 08:38:57;;;;;;;;;;;22.20;99.90;;;;;;5068650;28;19924;-67
2022/06/24 08:41:24;;;;;;;;;;;22.10;99.90;;;;;;5077485;28;20391;-67
2022/06/24 08:43:52;;;;;;;;;;;21.80;99.90;;;;;;5086399;28;19928;-66
2022/06/24 08:46:19;;;;;;;;;;;21.50;99.90;;;;;;5071404;28;19978;-67
2022/06/24 08:48:56;;;;;;;;;;;21.20;99.90;;;;;;5074037;28;19928;-67
2022/06/24 08:51:23;;;;;;;;;;;20.90;99.90;;;;;;5072024;28;19925;-67
2022/06/24 08:54:02;;;;;;;;;;;20.70;99.90;;;;;;5086434;28;19925;-66
2022/06/24 08:56:50;;;;;;;;;;;20.70;99.90;;;;;;5076251;28;19924;-67
2022/06/24 08:59:16;;;;;;;;;;;20.70;99.90;;;;;;5086558;28;20011;-67
2022/06/24 09:01:43;;;;;;;;;;;20.70;99.90;;;;;;5069377;28;20005;-67
2022/06/24 09:04:10;;;;;;;;;;;20.90;99.90;;;;;;5071510;28;19924;-67
2022/06/24 09:06:40;;;;;;;;;;;21.10;99.90;;;;;;5069301;28;21355;-67
2022/06/24 09:09:07;;;;;;;;;;;21.40;99.90;;;;;;5069250;28;19932;-67
2022/06/24 09:11:39;;;;;;;;;;;21.60;99.90;;;;;;5080088;28;20478;-67
2022/06/24 09:14:09;;;;;;;;;;;21.70;99.90;;;;;;5067834;28;19964;-67
2022/06/24 09:16:37;;;;;;;;;;;21.90;99.90;;;;;;5079495;28;19924;-67
2022/06/24 09:19:14;;;;;;;;;;;22.30;99.90;;;;;;5072469;28;20015;-67
2022/06/24 09:21:41;;;;;;;;;;;23.00;99.90;;;;;;5069944;28;19929;-67
2022/06/24 09:24:09;;;;;;;;;;;23.10;99.90;;;;;;5066934;28;19928;-66
2022/06/24 09:26:37;;;;;;;;;;;22.90;99.90;;;;;;5070807;28;20019;-67
2022/06/24 09:29:09;;;;;;;;;;;22.80;99.90;;;;;;5070458;28;20028;-67
2022/06/24 09:31:38;;;;;;;;;;;22.90;99.90;;;;;;5087639;28;19924;-67
2022/06/24 09:34:08;;;;;;;;;;;23.00;99.90;;;;;;5074774;28;19924;-66
2022/06/24 09:36:35;;;;;;;;;;;23.90;99.90;;;;;;5077176;28;19929;-66
2022/06/24 09:39:07;;;;;;;;;;;25.10;99.90;;;;;;5070569;28;20031;-67
2022/06/24 09:41:47;;;;;;;;;;;25.50;99.90;;;;;;5071084;28;19935;-66
2022/06/24 09:44:14;;;;;;;;;;;25.20;99.90;;;;;;5058588;28;19928;-65
2022/06/24 09:46:42;;;;;;;;;;;24.70;99.90;;;;;;5070659;28;20050;-65
2022/06/24 09:49:13;;;;;;;;;;;24.20;99.90;;;;;;5072687;28;19924;-67
2022/06/24 09:51:42;;;;;;;;;;;23.80;99.90;;;;;;5081345;28;19972;-67
2022/06/24 09:54:08;;;;;;;;;;;23.30;99.90;;;;;;5074949;28;20023;-66
2022/06/24 09:56:44;;;;;;;;;;;23.20;99.90;;;;;;5063082;28;19932;-69
2022/06/24 10:01:59;;;;;;;;;;;22.80;99.90;;;;;;5073246;28;19934;-66
2022/06/24 10:05:35;;;;;;;;;;;23.10;99.90;;;;;;5079144;27;20367;-66
2022/06/24 10:08:04;;;;;;;;;;;23.70;99.90;;;;;;5077299;28;19925;-66
2022/06/24 10:10:33;;;;;;;;;;;24.30;99.90;;;;;;5066280;28;19964;-66
2022/06/24 10:13:03;;;;;;;;;;;25.00;99.90;;;;;;5061883;28;19967;-67
2022/06/24 10:15:31;;;;;;;;;;;26.50;99.90;;;;;;5063960;28;20429;-66
2022/06/24 10:17:59;;;;;;;;;;;28.00;99.90;;;;;;5057292;28;19933;-66
2022/06/24 10:20:26;;;;;;;;;;;29.70;99.90;;;;;;5067344;28;19924;-67
2022/06/24 10:22:57;;;;;;;;;;;30.20;99.90;;;;;;5070064;28;19933;-67
2022/06/24 10:25:47;;;;;;;;;;;31.10;99.90;;;;;;5068531;28;20058;-67
2022/06/24 10:28:16;;;;;;;;;;;31.80;99.90;;;;;;5064300;28;19935;-67
2022/06/24 10:30:45;;;;;;;;;;;31.80;99.90;;;;;;5055313;28;19971;-67
2022/06/24 10:33:23;;;;;;;;;;;32.20;99.90;;;;;;5067067;28;19936;-63
2022/06/24 10:36:03;;;;;;;;;;;32.10;99.90;;;;;;5065484;28;20299;-65
2022/06/24 10:38:35;;;;;;;;;;;32.20;99.90;;;;;;5065527;28;19931;-65
2022/06/24 10:41:03;;;;;;;;;;;31.60;99.90;;;;;;5068439;28;19925;-66
2022/06/24 10:43:39;;;;;;;;;;;30.40;99.90;;;;;;5064303;28;19996;-65
2022/06/24 10:46:16;;;;;;;;;;;30.80;99.90;;;;;;5070506;28;19956;-65
2022/06/24 10:48:43;;;;;;;;;;;31.40;99.90;;;;;;5073516;28;19924;-66
2022/06/24 10:51:15;;;;;;;;;;;31.20;99.90;;;;;;5061077;28;19925;-65
2022/06/24 10:54:01;;;;;;;;;;;31.90;99.90;;;;;;5064717;28;20015;-66
2022/06/24 10:56:38;;;;;;;;;;;31.80;99.90;;;;;;5064479;28;20379;-66
2022/06/24 10:59:05;;;;;;;;;;;31.60;99.90;;;;;;5054912;28;19931;-66
2022/06/24 11:01:32;;;;;;;;;;;31.60;99.90;;;;;;5064736;28;19956;-65
2022/06/24 11:04:04;;;;;;;;;;;31.80;99.90;;;;;;5057751;28;19924;-66
2022/06/24 11:06:31;;;;;;;;;;;31.90;99.90;;;;;;5093646;28;19931;-66
2022/06/24 11:09:07;;;;;;;;;;;31.60;99.90;;;;;;5062203;28;20015;-68
2022/06/24 11:11:34;;;;;;;;;;;32.20;99.90;;;;;;5058518;28;20639;-68
2022/06/24 11:14:21;;;;;;;;;;;32.10;99.90;;;;;;5072341;28;20381;-67
2022/06/24 11:16:48;;;;;;;;;;;31.40;99.90;;;;;;5046479;28;19924;-68
2022/06/24 11:19:15;;;;;;;;;;;30.50;99.90;;;;;;5050916;28;20249;-66
2022/06/24 11:21:45;;;;;;;;;;;29.70;99.90;;;;;;5041571;28;19925;-66
2022/06/24 11:24:13;;;;;;;;;;;28.80;99.90;;;;;;5042268;28;20318;-66
2022/06/24 11:26:40;;;;;;;;;;;27.90;99.90;;;;;;5051842;28;20447;-67
2022/06/24 11:29:06;;;;;;;;;;;27.80;99.90;;;;;;5044053;28;20389;-65
2022/06/24 11:31:37;;;;;;;;;;;27.90;99.90;;;;;;5051062;28;19925;-63
2022/06/24 11:34:03;;;;;;;;;;;28.20;99.90;;;;;;5038881;28;19925;-64
2022/06/24 11:36:33;;;;;;;;;;;28.50;99.90;;;;;;5048749;28;20011;-63
2022/06/24 11:39:04;;;;;;;;;;;29.00;99.90;;;;;;5058238;28;19924;-67
2022/06/24 11:41:32;;;;;;;;;;;29.60;99.90;;;;;;5057593;28;19964;-67
2022/06/24 11:44:16;;;;;;;;;;;29.90;99.90;;;;;;5032756;28;20044;-67
2022/06/24 11:47:01;;;;;;;;;;;30.40;99.90;;;;;;5048141;28;19929;-66
2022/06/24 11:49:30;;;;;;;;;;;30.80;99.90;;;;;;5035045;28;19975;-64
2022/06/24 11:51:56;;;;;;;;;;;30.70;99.90;;;;;;5040073;28;19933;-67
2022/06/24 11:54:27;;;;;;;;;;;30.40;99.90;;;;;;5048535;28;20010;-67
2022/06/24 11:56:54;;;;;;;;;;;30.10;99.90;;;;;;5034409;28;20024;-66
2022/06/24 11:59:21;;;;;;;;;;;30.50;99.90;;;;;;5033244;28;19962;-67
2022/06/24 12:01:51;;;;;;;;;;;31.00;99.90;;;;;;5034919;28;20487;-67
2022/06/24 12:04:19;;;;;;;;;;;30.80;99.90;;;;;;5040403;28;19933;-66
2022/06/24 12:06:46;;;;;;;;;;;30.90;99.90;;;;;;5048242;28;20539;-66
2022/06/24 12:09:16;;;;;;;;;;;31.10;99.90;;;;;;5059103;28;19932;-67
2022/06/24 12:11:43;;;;;;;;;;;31.30;99.90;;;;;;5056171;28;20043;-66
2022/06/24 12:14:18;;;;;;;;;;;31.30;99.90;;;;;;5060983;28;20956;-67
2022/06/24 12:17:02;;;;;;;;;;;31.60;99.90;;;;;;5050184;28;19925;-67
2022/06/24 12:19:31;;;;;;;;;;;31.70;99.90;;;;;;5059172;28;19945;-67
2022/06/24 12:22:01;;;;;;;;;;;31.40;99.90;;;;;;5071651;28;19924;-66
2022/06/24 12:24:28;;;;;;;;;;;30.90;99.90;;;;;;5066914;28;19929;-66
2022/06/24 12:26:55;;;;;;;;;;;30.70;99.90;;;;;;5054559;28;20415;-67
2022/06/24 12:29:27;;;;;;;;;;;30.50;99.90;;;;;;5066534;28;19924;-67
2022/06/24 12:31:54;;;;;;;;;;;30.20;99.90;;;;;;5077143;28;19970;-67
2022/06/24 12:34:26;;;;;;;;;;;30.60;99.90;;;;;;5069453;28;20018;-67
2022/06/24 12:37:00;;;;;;;;;;;31.00;99.90;;;;;;5070082;28;19931;-66
2022/06/24 12:39:27;;;;;;;;;;;31.10;99.90;;;;;;5060208;28;19929;-65
2022/06/24 12:41:54;;;;;;;;;;;30.90;99.90;;;;;;5054957;28;19968;-66
2022/06/24 12:44:21;;;;;;;;;;;31.00;99.90;;;;;;5054154;28;19933;-67
2022/06/24 12:52:28;;;;;;;;;;;31.40;99.90;;;;;;5064855;28;19956;-67
2022/06/24 12:54:55;;;;;;;;;;;31.70;99.90;;;;;;5072073;28;19924;-66
2022/06/24 12:57:23;;;;;;;;;;;31.20;99.00;;;;;;5075414;28;20324;-66
2022/06/24 12:59:53;;;;;;;;;;;31.00;99.90;;;;;;5063399;28;20379;-66
2022/06/24 13:02:22;;;;;;;;;;;31.10;99.70;;;;;;5067459;28;19968;-66
2022/06/24 13:04:48;;;;;;;;;;;31.40;99.70;;;;;;5069174;28;20004;-65
2022/06/24 13:07:25;;;;;;;;;;;31.90;99.60;;;;;;5066250;28;19932;-66
2022/06/24 13:09:54;;;;;;;;;;;31.60;99.90;;;;;;5076186;28;20411;-66
2022/06/24 13:12:21;;;;;;;;;;;31.60;99.50;;;;;;5072018;28;19930;-65
2022/06/24 13:14:47;;;;;;;;;;;31.70;99.40;;;;;;5071902;28;20006;-65
2022/06/24 13:17:14;;;;;;;;;;;31.60;99.10;;;;;;5075568;28;19948;-67
2022/06/24 13:19:41;;;;;;;;;;;31.60;99.90;;;;;;5068548;28;19982;-66
2022/06/24 13:22:07;;;;;;;;;;;31.60;99.90;;;;;;5066780;28;19931;-66
2022/06/24 13:24:34;;;;;;;;;;;31.90;98.70;;;;;;5075959;28;20922;-66
2022/06/24 13:27:03;;;;;;;;;;;31.90;97.40;;;;;;5065234;28;20021;-66
2022/06/24 13:29:30;;;;;;;;;;;32.20;97.60;;;;;;5068971;28;19925;-64
2022/06/24 13:32:01;;;;;;;;;;;32.20;97.00;;;;;;5068691;28;19934;-65
2022/06/24 13:34:28;;;;;;;;;;;32.40;97.90;;;;;;5063944;28;19928;-64
2022/06/24 13:36:54;;;;;;;;;;;32.80;97.30;;;;;;5066649;28;19924;-66
2022/06/24 13:39:21;;;;;;;;;;;32.70;97.70;;;;;;5085445;28;19929;-65
2022/06/24 13:41:48;;;;;;;;;;;32.80;97.30;;;;;;5060699;28;20028;-66
2022/06/24 13:44:17;;;;;;;;;;;33.20;97.60;;;;;;5059987;28;20024;-66
2022/06/24 13:46:44;;;;;;;;;;;33.00;96.10;;;;;;5068005;28;19975;-66
2022/06/24 13:49:11;;;;;;;;;;;32.80;97.50;;;;;;5064977;28;19933;-64
2022/06/24 13:51:37;;;;;;;;;;;32.50;97.80;;;;;;5059518;28;20302;-65
2022/06/24 13:54:04;;;;;;;;;;;32.50;97.30;;;;;;5058626;28;19932;-65
2022/06/24 13:56:34;;;;;;;;;;;32.70;98.00;;;;;;5063473;28;20007;-66
2022/06/24 13:59:04;;;;;;;;;;;32.50;97.50;;;;;;5062099;28;19947;-65
2022/06/24 14:01:31;;;;;;;;;;;32.20;97.00;;;;;;5064467;28;20433;-65
2022/06/24 14:03:58;;;;;;;;;;;32.20;96.60;;;;;;5046730;28;20439;-65
2022/06/24 14:06:25;;;;;;;;;;;32.10;96.80;;;;;;5061007;28;19971;-66
2022/06/24 14:08:51;;;;;;;;;;;33.00;97.30;;;;;;5066564;28;20434;-64
2022/06/24 14:11:18;;;;;;;;;;;33.70;96.20;;;;;;5074854;28;19928;-66
2022/06/24 14:13:45;;;;;;;;;;;33.80;96.10;;;;;;5063609;28;19935;-64
2022/06/24 14:16:12;;;;;;;;;;;33.40;96.60;;;;;;5064728;28;20014;-64
2022/06/24 14:18:59;;;;;;;;;;;32.50;97.10;;;;;;5068466;28;19924;-66
2022/06/24 14:21:26;;;;;;;;;;;31.60;97.50;;;;;;5063473;28;19933;-64
2022/06/24 14:26:39;;;;;;;;;;;29.70;98.70;;;;;;5060022;28;20371;-64
2022/06/24 14:29:05;;;;;;;;;;;29.30;99.90;;;;;;5079929;28;19925;-64
2022/06/24 14:31:32;;;;;;;;;;;30.30;99.30;;;;;;5061096;28;20039;-64
2022/06/24 14:33:59;;;;;;;;;;;30.70;98.80;;;;;;5067647;28;20013;-65
2022/06/24 14:36:25;;;;;;;;;;;30.30;99.20;;;;;;5071773;28;19925;-65
2022/06/24 14:41:40;;;;;;;;;;;30.00;99.90;;;;;;5065964;28;19935;-65
2022/06/24 14:44:07;;;;;;;;;;;29.80;99.90;;;;;;5079600;28;19968;-64
2022/06/24 14:46:33;;;;;;;;;;;29.50;99.80;;;;;;5091711;28;20389;-64